createdAt,value
2022-09-20T00:01:04.245Z,99085.66
2022-09-20T00:03:30.675Z,99085.38
2022-09-20T00:06:01.422Z,99079.41
2022-09-20T00:08:28.006Z,99078.59
2022-09-20T00:11:07.014Z,99076.19
2022-09-20T00:13:35.128Z,99070.22
2022-09-20T00:16:08.803Z,99071.06
2022-09-20T00:18:35.802Z,99065.34
2022-09-20T00:21:02.948Z,99077.00
2022-09-20T00:23:30.150Z,99071.34
2022-09-20T00:26:01.177Z,99068.38
2022-09-20T00:28:29.216Z,99066.22
2022-09-20T00:30:56.519Z,99074.88
2022-09-20T00:33:24.944Z,99070.00
2022-09-20T00:35:51.295Z,99077.31
2022-09-20T00:38:17.711Z,99073.53
2022-09-20T00:40:45.312Z,99070.81
2022-09-20T00:43:18.429Z,99070.28
2022-09-20T00:45:47.985Z,99070.56
2022-09-20T00:48:30.152Z,99068.94
2022-09-20T00:51:01.902Z,99062.97
2022-09-20T00:53:36.596Z,99064.59
2022-09-20T00:56:33.999Z,99067.28
2022-09-20T00:59:17.099Z,99065.94
2022-09-20T01:01:46.719Z,99065.38
2022-09-20T01:04:15.695Z,99061.63
2022-09-20T01:06:44.774Z,99064.31
2022-09-20T01:09:11.207Z,99064.63
2022-09-20T01:11:39.156Z,99064.06
2022-09-20T01:14:05.703Z,99061.63
2022-09-20T01:16:33.930Z,99065.94
2022-09-20T01:19:06.704Z,99071.38
2022-09-20T01:21:33.615Z,99066.75
2022-09-20T01:24:15.083Z,99065.66
2022-09-20T01:27:19.021Z,99068.09
2022-09-20T01:30:06.300Z,99067.28
2022-09-20T01:33:02.779Z,99068.09
2022-09-20T01:35:31.865Z,99068.38
2022-09-20T01:38:36.723Z,99066.47
2022-09-20T01:41:12.308Z,99063.53
2022-09-20T01:43:46.336Z,99066.22
2022-09-20T01:46:30.052Z,99062.69
2022-09-20T01:49:02.573Z,99060.53
2022-09-20T01:51:45.856Z,99065.16
2022-09-20T01:55:06.181Z,99069.47
2022-09-20T01:57:38.760Z,99059.44
2022-09-20T02:00:19.765Z,99057.84
2022-09-20T02:03:12.455Z,99061.34
2022-09-20T02:06:23.535Z,99055.41
2022-09-20T02:09:03.615Z,99054.00
2022-09-20T02:11:40.749Z,99056.72
2022-09-20T02:14:25.940Z,99058.63
2022-09-20T02:16:56.934Z,99065.13
2022-09-20T02:19:32.732Z,99063.81
2022-09-20T02:22:18.626Z,99064.63
2022-09-20T02:24:58.071Z,99058.41
2022-09-20T02:27:54.196Z,99065.72
2022-09-20T02:30:58.496Z,99057.59
2022-09-20T02:34:22.073Z,99056.22
2022-09-20T02:37:15.852Z,99053.22
2022-09-20T02:39:58.918Z,99051.59
2022-09-20T02:42:50.494Z,99055.91
2022-09-20T02:45:44.257Z,99055.38
2022-09-20T02:48:10.922Z,99049.97
2022-09-20T02:50:42.531Z,99058.13
2022-09-20T02:53:26.410Z,99055.41
2022-09-20T02:56:23.903Z,99051.59
2022-09-20T02:58:56.201Z,99064.09
2022-09-20T03:01:47.724Z,99055.66
2022-09-20T03:04:45.829Z,99067.31
2022-09-20T03:07:15.099Z,99064.59
2022-09-20T03:10:15.783Z,99077.34
2022-09-20T03:13:05.219Z,99069.50
2022-09-20T03:15:49.903Z,99068.94
2022-09-20T03:18:21.388Z,99065.44
2022-09-20T03:21:29.959Z,99082.78
2022-09-20T03:24:30.288Z,99080.63
2022-09-20T03:27:19.834Z,99073.03
2022-09-20T03:30:04.772Z,99076.84
2022-09-20T03:32:31.059Z,99078.72
2022-09-20T03:35:00.696Z,99080.88
2022-09-20T03:37:37.466Z,99080.06
2022-09-20T03:40:24.106Z,99080.63
2022-09-20T03:42:56.907Z,99084.69
2022-09-20T03:45:35.295Z,99085.78
2022-09-20T03:48:04.683Z,99081.69
2022-09-20T03:51:13.905Z,99085.75
2022-09-20T03:53:51.455Z,99084.69
2022-09-20T03:56:44.850Z,99093.09
2022-09-20T03:59:47.210Z,99094.44
2022-09-20T04:02:25.719Z,99099.03
2022-09-20T04:04:57.477Z,99096.09
2022-09-20T04:07:50.300Z,99096.09
2022-09-20T04:10:25.510Z,99090.66
2022-09-20T04:13:05.186Z,99102.31
2022-09-20T04:15:34.504Z,99098.22
2022-09-20T04:18:03.771Z,99099.31
2022-09-20T04:20:40.877Z,99093.38
2022-09-20T04:23:25.064Z,99093.91
2022-09-20T04:25:51.572Z,99096.09
2022-09-20T04:28:30.744Z,99095.56
2022-09-20T04:31:05.934Z,99098.28
2022-09-20T04:33:41.207Z,99099.91
2022-09-20T04:36:35.775Z,99098.84
2022-09-20T04:39:32.432Z,99098.28
2022-09-20T04:42:20.198Z,99104.50
2022-09-20T04:45:10.397Z,99102.63
2022-09-20T04:47:36.717Z,99107.78
2022-09-20T04:50:42.861Z,99117.81
2022-09-20T04:53:37.181Z,99111.56
2022-09-20T04:56:22.089Z,99119.41
2022-09-20T04:59:00.404Z,99114.81
2022-09-20T05:02:03.456Z,99115.63
2022-09-20T05:04:51.735Z,99124.84
2022-09-20T05:07:30.307Z,99128.88
2022-09-20T05:10:24.386Z,99143.22
2022-09-20T05:13:12.682Z,99142.69
2022-09-20T05:16:23.905Z,99136.75
2022-09-20T05:19:55.780Z,99145.16
2022-09-20T05:22:33.087Z,99139.19
2022-09-20T05:25:14.287Z,99141.38
2022-09-20T05:28:01.814Z,99142.72
2022-09-20T05:30:42.094Z,99147.59
2022-09-20T05:33:20.416Z,99146.53
2022-09-20T05:35:55.675Z,99145.44
2022-09-20T05:38:40.723Z,99139.47
2022-09-20T05:41:31.801Z,99143.53
2022-09-20T05:44:19.923Z,99151.38
2022-09-20T05:46:59.055Z,99150.03
2022-09-20T05:49:31.451Z,99158.41
2022-09-20T05:52:03.801Z,99160.03
2022-09-20T05:54:47.375Z,99157.88
2022-09-20T05:57:39.652Z,99165.47
2022-09-20T06:00:14.874Z,99167.88
2022-09-20T06:02:47.527Z,99170.31
2022-09-20T06:05:35.586Z,99169.75
2022-09-20T06:08:40.767Z,99172.19
2022-09-20T06:11:37.845Z,99175.16
2022-09-20T06:14:37.979Z,99178.97
2022-09-20T06:17:24.112Z,99175.69
2022-09-20T06:20:11.385Z,99174.06
2022-09-20T06:22:42.906Z,99175.94
2022-09-20T06:25:09.206Z,99173.53
2022-09-20T06:27:39.711Z,99183.84
2022-09-20T06:30:18.069Z,99177.88
2022-09-20T06:32:55.531Z,99176.25
2022-09-20T06:35:27.133Z,99177.88
2022-09-20T06:38:33.000Z,99179.75
2022-09-20T06:41:18.394Z,99186.28
2022-09-20T06:43:45.508Z,99184.34
2022-09-20T06:46:13.809Z,99190.28
2022-09-20T06:48:40.343Z,99191.88
2022-09-20T06:51:09.560Z,99193.41
2022-09-20T06:53:40.319Z,99198.25
2022-09-20T06:56:16.515Z,99190.69
2022-09-20T06:58:42.920Z,99198.06
2022-09-20T07:01:09.339Z,99194.53
2022-09-20T07:03:35.886Z,99205.94
2022-09-20T07:06:04.272Z,99208.91
2022-09-20T07:08:30.729Z,99202.94
2022-09-20T07:10:57.117Z,99197.25
2022-09-20T07:13:24.014Z,99196.72
2022-09-20T07:15:51.124Z,99200.22
2022-09-20T07:18:17.580Z,99201.56
2022-09-20T07:20:44.613Z,99217.00
2022-09-20T07:23:10.991Z,99210.78
2022-09-20T07:25:37.734Z,99212.97
2022-09-20T07:28:04.154Z,99210.78
2022-09-20T07:30:30.582Z,99219.72
2022-09-20T07:32:56.910Z,99220.53
2022-09-20T07:35:23.952Z,99216.13
2022-09-20T07:37:56.452Z,99214.91
2022-09-20T07:40:22.988Z,99210.47
2022-09-20T07:42:53.039Z,99210.41
2022-09-20T07:45:22.189Z,99214.13
2022-09-20T07:47:49.129Z,99206.69
2022-09-20T07:50:15.621Z,99212.31
2022-09-20T07:52:42.696Z,99210.78
2022-09-20T07:55:09.093Z,99220.78
2022-09-20T07:57:37.285Z,99221.38
2022-09-20T08:00:06.894Z,99216.19
2022-09-20T08:02:33.293Z,99223.63
2022-09-20T08:04:59.831Z,99226.03
2022-09-20T08:07:26.181Z,99220.34
2022-09-20T08:09:52.715Z,99227.28
2022-09-20T08:15:11.170Z,99232.56
2022-09-20T08:17:40.216Z,99229.44
2022-09-20T08:20:07.197Z,99230.44
2022-09-20T08:22:34.750Z,99241.25
2022-09-20T08:25:01.123Z,99242.63
2022-09-20T08:27:27.655Z,99234.66
2022-09-20T08:29:55.379Z,99238.00
2022-09-20T08:32:21.763Z,99241.47
2022-09-20T08:34:49.585Z,99236.16
2022-09-20T08:37:16.419Z,99248.53
2022-09-20T08:39:58.956Z,99239.88
2022-09-20T08:42:39.093Z,99243.22
2022-09-20T08:45:22.715Z,99228.06
2022-09-20T08:48:05.550Z,99223.66
2022-09-20T08:50:34.211Z,99222.25
2022-09-20T08:53:04.866Z,99228.66
2022-09-20T08:55:39.972Z,99241.38
2022-09-20T08:58:11.990Z,99235.09
2022-09-20T09:00:39.750Z,99234.13
2022-09-20T09:03:12.283Z,99233.06
2022-09-20T09:05:44.335Z,99230.94
2022-09-20T09:08:16.682Z,99229.31
2022-09-20T09:10:46.715Z,99236.09
2022-09-20T09:13:26.378Z,99226.78
2022-09-20T09:16:00.228Z,99230.66
2022-09-20T09:18:33.156Z,99231.41
2022-09-20T09:21:00.118Z,99226.66
2022-09-20T09:23:27.834Z,99228.84
2022-09-20T09:25:55.842Z,99222.09
2022-09-20T09:28:29.264Z,99222.97
2022-09-20T09:31:14.053Z,99228.91
2022-09-20T09:33:45.459Z,99223.78
2022-09-20T09:36:16.838Z,99222.59
2022-09-20T09:38:46.208Z,99220.41
2022-09-20T09:41:24.322Z,99215.19
2022-09-20T09:44:07.134Z,99223.06
2022-09-20T09:46:34.718Z,99217.69
2022-09-20T09:49:17.193Z,99216.72
2022-09-20T09:52:00.953Z,99222.97
2022-09-20T09:54:29.504Z,99215.56
2022-09-20T09:56:59.459Z,99222.50
2022-09-20T09:59:47.742Z,99220.56
2022-09-20T10:02:55.693Z,99220.28
2022-09-20T10:05:34.849Z,99216.91
2022-09-20T10:08:19.919Z,99216.09
2022-09-20T10:11:21.773Z,99217.66
2022-09-20T10:14:17.034Z,99209.94
2022-09-20T10:17:14.419Z,99208.25
2022-09-20T10:19:56.144Z,99217.66
2022-09-20T10:23:21.695Z,99213.63
2022-09-20T10:25:47.909Z,99209.53
2022-09-20T10:28:34.245Z,99213.78
2022-09-20T10:31:32.500Z,99218.75
2022-09-20T10:34:22.588Z,99213.56
2022-09-20T10:36:57.317Z,99206.81
2022-09-20T10:39:35.262Z,99210.03
2022-09-20T10:42:42.112Z,99207.63
2022-09-20T10:46:03.854Z,99213.06
2022-09-20T10:48:30.867Z,99207.44
2022-09-20T10:51:13.161Z,99206.69
2022-09-20T10:54:09.582Z,99209.97
2022-09-20T10:56:47.083Z,99205.94
2022-09-20T10:59:30.249Z,99211.50
2022-09-20T11:02:18.554Z,99202.06
2022-09-20T11:05:30.915Z,99208.63
2022-09-20T11:08:07.163Z,99204.75
2022-09-20T11:10:42.974Z,99203.00
2022-09-20T11:13:20.199Z,99211.78
2022-09-20T11:15:55.826Z,99208.00
2022-09-20T11:18:33.490Z,99203.16
2022-09-20T11:21:08.812Z,99211.34
2022-09-20T11:23:45.370Z,99205.50
2022-09-20T11:26:19.921Z,99205.25
2022-09-20T11:28:50.350Z,99203.34
2022-09-20T11:31:24.761Z,99194.06
2022-09-20T11:33:57.636Z,99204.78
2022-09-20T11:36:45.984Z,99206.22
2022-09-20T11:39:26.552Z,99202.59
2022-09-20T11:41:56.487Z,99194.44
2022-09-20T11:44:23.446Z,99197.63
2022-09-20T11:47:36.655Z,99194.38
2022-09-20T11:50:38.381Z,99187.09
2022-09-20T11:53:24.338Z,99184.31
2022-09-20T11:56:05.064Z,99183.81
2022-09-20T11:58:31.686Z,99189.00
2022-09-20T12:00:59.768Z,99185.63
2022-09-20T12:03:44.705Z,99174.31
2022-09-20T12:06:33.187Z,99187.97
2022-09-20T12:09:03.212Z,99177.06
2022-09-20T12:11:35.967Z,99182.03
2022-09-20T12:14:24.172Z,99171.69
2022-09-20T12:16:51.388Z,99174.81
2022-09-20T12:19:20.877Z,99169.94
2022-09-20T12:21:59.496Z,99176.44
2022-09-20T12:24:36.930Z,99177.25
2022-09-20T12:27:23.174Z,99172.09
2022-09-20T12:30:11.819Z,99174.38
2022-09-20T12:32:56.385Z,99163.84
2022-09-20T12:35:44.415Z,99154.53
2022-09-20T12:38:19.833Z,99155.41
2022-09-20T12:41:12.881Z,99155.94
2022-09-20T12:43:50.587Z,99155.31
2022-09-20T12:46:22.908Z,99160.38
2022-09-20T12:48:49.715Z,99160.09
2022-09-20T12:51:47.140Z,99155.75
2022-09-20T12:54:13.911Z,99155.84
2022-09-20T12:56:41.524Z,99157.16
2022-09-20T12:59:30.913Z,99153.31
2022-09-20T13:02:36.114Z,99154.75
2022-09-20T13:05:22.811Z,99152.75
2022-09-20T13:07:59.286Z,99159.84
2022-09-20T13:10:37.222Z,99154.06
2022-09-20T13:13:18.826Z,99148.78
2022-09-20T13:15:52.366Z,99148.78
2022-09-20T13:18:20.082Z,99144.66
2022-09-20T13:20:51.781Z,99151.56
2022-09-20T13:23:23.600Z,99159.06
2022-09-20T13:25:50.444Z,99142.09
2022-09-20T13:28:40.269Z,99156.56
2022-09-20T13:31:24.071Z,99153.44
2022-09-20T13:33:50.695Z,99157.81
2022-09-20T13:36:30.073Z,99151.75
2022-09-20T13:38:58.365Z,99152.25
2022-09-20T13:41:29.077Z,99152.66
2022-09-20T13:43:55.996Z,99153.84
2022-09-20T13:46:33.040Z,99154.19
2022-09-20T13:49:24.426Z,99152.56
2022-09-20T13:51:51.953Z,99151.47
2022-09-20T13:54:36.368Z,99149.50
2022-09-20T13:57:06.539Z,99155.59
2022-09-20T13:59:41.911Z,99159.25
2022-09-20T14:02:22.680Z,99157.25
2022-09-20T14:04:51.828Z,99156.22
2022-09-20T14:07:18.772Z,99162.88
2022-09-20T14:09:45.920Z,99167.84
2022-09-20T14:12:13.981Z,99166.78
2022-09-20T14:14:41.692Z,99175.88
2022-09-20T14:17:09.465Z,99174.88
2022-09-20T14:19:42.456Z,99187.13
2022-09-20T14:22:18.402Z,99185.00
2022-09-20T14:24:59.393Z,99189.09
2022-09-20T14:27:25.920Z,99186.75
2022-09-20T14:29:53.725Z,99185.69
2022-09-20T14:32:21.403Z,99181.97
2022-09-20T14:34:56.880Z,99181.44
2022-09-20T14:37:25.962Z,99176.78
2022-09-20T14:40:01.780Z,99167.81
2022-09-20T14:42:43.644Z,99180.94
2022-09-20T14:45:29.209Z,99182.25
2022-09-20T14:48:26.238Z,99182.03
2022-09-20T14:51:29.083Z,99174.97
2022-09-20T14:54:04.410Z,99168.94
2022-09-20T14:56:37.107Z,99175.31
2022-09-20T14:59:21.202Z,99174.66
2022-09-20T15:02:13.817Z,99172.63
2022-09-20T15:04:51.275Z,99174.88
2022-09-20T15:07:17.792Z,99175.81
2022-09-20T15:09:44.152Z,99169.97
2022-09-20T15:12:17.812Z,99170.88
2022-09-20T15:14:44.694Z,99166.81
2022-09-20T15:17:17.410Z,99171.88
2022-09-20T15:19:44.239Z,99170.00
2022-09-20T15:22:11.556Z,99170.94
2022-09-20T15:24:38.335Z,99167.50
2022-09-20T15:27:05.122Z,99173.66
2022-09-20T15:29:31.656Z,99169.91
2022-09-20T15:31:58.407Z,99167.41
2022-09-20T15:34:24.820Z,99173.31
2022-09-20T15:36:51.271Z,99168.84
2022-09-20T15:39:17.669Z,99179.25
2022-09-20T15:41:45.964Z,99169.59
2022-09-20T15:44:16.434Z,99178.19
2022-09-20T15:46:42.964Z,99175.97
2022-09-20T15:49:12.164Z,99169.09
2022-09-20T15:51:40.452Z,99169.47
2022-09-20T15:54:08.956Z,99165.53
2022-09-20T15:56:37.312Z,99167.22
2022-09-20T15:59:05.755Z,99165.59
2022-09-20T16:01:38.028Z,99167.03
2022-09-20T16:04:08.442Z,99171.16
2022-09-20T16:06:34.959Z,99162.16
2022-09-20T16:09:01.380Z,99166.59
2022-09-20T16:11:28.026Z,99166.59
2022-09-20T16:13:55.977Z,99170.44
2022-09-20T16:16:22.571Z,99167.72
2022-09-20T16:19:08.920Z,99166.91
2022-09-20T16:21:39.473Z,99171.75
2022-09-20T16:24:06.762Z,99169.13
2022-09-20T16:26:37.909Z,99170.25
2022-09-20T16:29:06.958Z,99170.44
2022-09-20T16:31:40.797Z,99176.84
2022-09-20T16:34:16.811Z,99170.16
2022-09-20T16:36:44.253Z,99173.25
2022-09-20T16:39:11.781Z,99177.72
2022-09-20T16:41:39.480Z,99174.56
2022-09-20T16:44:06.479Z,99183.59
2022-09-20T16:46:35.049Z,99188.59
2022-09-20T16:49:01.428Z,99184.34
2022-09-20T16:51:34.132Z,99187.13
2022-09-20T16:54:14.909Z,99182.56
2022-09-20T16:56:44.485Z,99198.34
2022-09-20T16:59:12.533Z,99194.31
2022-09-20T17:01:40.501Z,99192.16
2022-09-20T17:04:07.540Z,99193.56
2022-09-20T17:06:35.585Z,99190.63
2022-09-20T17:09:02.184Z,99198.56
2022-09-20T17:11:31.017Z,99200.25
2022-09-20T17:13:57.768Z,99196.50
2022-09-20T17:16:31.862Z,99197.59
2022-09-20T17:19:09.339Z,99201.44
2022-09-20T17:21:38.581Z,99205.53
2022-09-20T17:24:07.027Z,99208.53
2022-09-20T17:26:40.141Z,99213.47
2022-09-20T17:29:10.244Z,99214.84
2022-09-20T17:31:39.371Z,99218.97
2022-09-20T17:34:09.421Z,99218.22
2022-09-20T17:36:39.629Z,99221.78
2022-09-20T17:39:06.946Z,99223.72
2022-09-20T17:41:37.367Z,99231.66
2022-09-20T17:44:08.339Z,99225.16
2022-09-20T17:46:37.190Z,99231.19
2022-09-20T17:49:09.927Z,99233.41
2022-09-20T17:51:44.879Z,99230.72
2022-09-20T17:54:13.779Z,99237.53
2022-09-20T17:56:42.649Z,99239.22
2022-09-20T17:59:10.402Z,99239.78
2022-09-20T18:01:37.737Z,99250.97
2022-09-20T18:04:06.310Z,99250.44
2022-09-20T18:06:44.208Z,99252.09
2022-09-20T18:09:14.242Z,99253.78
2022-09-20T18:11:44.051Z,99250.00
2022-09-20T18:14:10.967Z,99252.22
2022-09-20T18:16:38.757Z,99265.25
2022-09-20T18:19:06.890Z,99256.59
2022-09-20T18:21:35.604Z,99262.31
2022-09-20T18:24:05.385Z,99261.81
2022-09-20T18:26:33.105Z,99268.59
2022-09-20T18:29:01.426Z,99274.63
2022-09-20T18:31:41.696Z,99274.09
2022-09-20T18:34:15.455Z,99282.81
2022-09-20T18:36:42.145Z,99285.56
2022-09-20T18:39:08.918Z,99286.44
2022-09-20T18:41:37.331Z,99291.59
2022-09-20T18:44:07.045Z,99292.69
2022-09-20T18:46:37.791Z,99294.09
2022-09-20T18:49:09.276Z,99293.31
2022-09-20T18:51:39.698Z,99295.72
2022-09-20T18:54:06.549Z,99301.75
2022-09-20T18:56:35.304Z,99299.03
2022-09-20T18:59:07.009Z,99302.34
2022-09-20T19:01:55.002Z,99313.47
2022-09-20T19:04:40.114Z,99309.19
2022-09-20T19:07:29.510Z,99317.34
2022-09-20T19:10:21.653Z,99319.56
2022-09-20T19:13:06.354Z,99331.00
2022-09-20T19:15:51.469Z,99334.78
2022-09-20T19:18:38.718Z,99337.50
2022-09-20T19:21:21.617Z,99333.16
2022-09-20T19:24:11.544Z,99341.59
2022-09-20T19:26:38.688Z,99351.13
2022-09-20T19:29:18.206Z,99338.69
2022-09-20T19:31:46.659Z,99353.91
2022-09-20T19:34:19.466Z,99357.72
2022-09-20T19:36:50.232Z,99358.25
2022-09-20T19:39:54.291Z,99360.16
2022-09-20T19:42:32.327Z,99364.81
2022-09-20T19:45:18.710Z,99362.63
2022-09-20T19:47:51.003Z,99368.59
2022-09-20T19:50:38.627Z,99366.44
2022-09-20T19:53:05.476Z,99371.03
2022-09-20T19:55:33.490Z,99374.56
2022-09-20T19:58:00.232Z,99373.50
2022-09-20T20:00:27.090Z,99373.50
2022-09-20T20:02:54.138Z,99365.91
2022-09-20T20:05:25.526Z,99375.69
2022-09-20T20:08:05.720Z,99373.78
2022-09-20T20:10:49.565Z,99372.44
2022-09-20T20:13:44.537Z,99375.41
2022-09-20T20:16:15.289Z,99370.00
2022-09-20T20:18:56.926Z,99370.25
2022-09-20T20:21:40.057Z,99371.34
2022-09-20T20:24:27.310Z,99377.88
2022-09-20T20:26:53.725Z,99380.03
2022-09-20T20:29:21.578Z,99382.75
2022-09-20T20:31:47.970Z,99380.84
2022-09-20T20:34:16.762Z,99383.56
2022-09-20T20:36:44.129Z,99383.31
2022-09-20T20:39:11.695Z,99383.84
2022-09-20T20:41:39.373Z,99386.53
2022-09-20T20:44:06.225Z,99390.06
2022-09-20T20:46:34.798Z,99381.38
2022-09-20T20:49:05.096Z,99390.34
2022-09-20T20:51:34.805Z,99387.06
2022-09-20T20:54:03.027Z,99387.06
2022-09-20T20:56:30.352Z,99381.38
2022-09-20T20:59:01.066Z,99383.28
2022-09-20T21:01:29.062Z,99384.59
2022-09-20T21:03:57.744Z,99383.25
2022-09-20T21:06:31.861Z,99389.22
2022-09-20T21:08:58.714Z,99379.44
2022-09-20T21:11:31.013Z,99384.31
2022-09-20T21:13:58.944Z,99376.72
2022-09-20T21:16:30.731Z,99383.22
2022-09-20T21:18:58.298Z,99381.81
2022-09-20T21:21:26.572Z,99386.97
2022-09-20T21:23:58.124Z,99389.41
2022-09-20T21:26:26.885Z,99390.22
2022-09-20T21:28:56.793Z,99390.22
2022-09-20T21:31:24.049Z,99390.78
2022-09-20T21:33:50.490Z,99392.38
2022-09-20T21:36:20.494Z,99399.97
2022-09-20T21:38:47.338Z,99389.66
2022-09-20T21:41:17.663Z,99398.84
2022-09-20T21:43:46.012Z,99390.19
2022-09-20T21:46:15.504Z,99396.13
2022-09-20T21:48:42.011Z,99395.56
2022-09-20T21:51:10.722Z,99402.56
2022-09-20T21:53:39.105Z,99398.19
2022-09-20T21:56:08.468Z,99399.53
2022-09-20T21:58:35.437Z,99404.13
2022-09-20T22:01:11.230Z,99401.38
2022-09-20T22:03:39.843Z,99407.03
2022-09-20T22:06:07.788Z,99413.78
2022-09-20T22:08:36.537Z,99403.53
2022-09-20T22:11:03.443Z,99402.75
2022-09-20T22:13:30.322Z,99397.28
2022-09-20T22:16:05.494Z,99395.13
2022-09-20T22:18:37.274Z,99400.78
2022-09-20T22:21:18.909Z,99393.16
2022-09-20T22:23:48.971Z,99389.38
2022-09-20T22:26:18.188Z,99395.91
2022-09-20T22:28:44.542Z,99389.94
2022-09-20T22:31:13.934Z,99391.56
2022-09-20T22:33:49.209Z,99387.53
2022-09-20T22:36:17.654Z,99379.09
2022-09-20T22:38:45.150Z,99382.31
2022-09-20T22:41:13.157Z,99380.38
2022-09-20T22:43:39.756Z,99382.53
2022-09-20T22:46:08.860Z,99381.19
2022-09-20T22:48:35.865Z,99387.72
2022-09-20T22:51:08.088Z,99388.53
2022-09-20T22:53:35.236Z,99383.38
2022-09-20T22:56:15.943Z,99380.44
2022-09-20T22:58:47.377Z,99387.19
2022-09-20T23:01:22.695Z,99395.25
2022-09-20T23:03:58.430Z,99387.66
2022-09-20T23:06:28.001Z,99393.13
2022-09-20T23:08:57.323Z,99399.63
2022-09-20T23:11:24.671Z,99393.66
2022-09-20T23:13:59.543Z,99397.44
2022-09-20T23:16:30.853Z,99391.78
2022-09-20T23:18:59.203Z,99394.19
2022-09-20T23:21:26.123Z,99394.16
2022-09-20T23:23:57.815Z,99392.50
2022-09-20T23:26:25.854Z,99400.06
2022-09-20T23:28:56.567Z,99401.09
2022-09-20T23:31:23.602Z,99399.25
2022-09-20T23:33:52.356Z,99400.31
2022-09-20T23:36:20.196Z,99410.28
2022-09-20T23:38:47.557Z,99402.13
2022-09-20T23:41:16.603Z,99405.91
2022-09-20T23:43:45.092Z,99398.56
2022-09-20T23:46:13.865Z,99396.41
2022-09-20T23:48:43.807Z,99395.00
2022-09-20T23:51:15.823Z,99395.31
2022-09-20T23:53:44.056Z,99401.50
2022-09-20T23:56:12.163Z,99402.25
2022-09-20T23:58:40.835Z,99409.28
